Shepherd Moon — MCQS3 — position and weather

sailwx.info

Track history (hours):
 
Tides and Currents Weather Stations Pressure Air Temp Water Temp Dewpoint Dewpoint Depression Visibility Wind Speed Wind Dir Waves Ship Positions

Shepherd Moon

Last reported at 2017-Nov-05 16:39 UTC. Time now 2017-Nov-21 00:58 UTC.
Position N 27°44' W 015°10'.
Warning: this ship's position is 15 days out of date.

Length 15 m.

Type: Sailing vessel. MMSI: 235013791.

Date/timePositionNaut miles runAvg speedWind from/ knotsBaromVisibWave heightAir tempDewpointWater temp
2017-Nov-05 16:39N 27°44' W 015°10'1 6.6
2017-Nov-05 16:30N 27°45' W 015°10'4 7.5
2017-Nov-05 15:59N 27°49' W 015°11'4 7.7
2017-Nov-05 15:30N 27°52' W 015°13'4 7.6
2017-Nov-05 15:00N 27°56' W 015°14'4 7.7
2017-Nov-05 14:29N 27°59' W 015°17'4 7.6
2017-Nov-05 13:59N 28°02' W 015°20'3 6.9
2017-Nov-05 13:29N 28°04' W 015°22'3 5.5
2017-Nov-05 12:58N 28°07' W 015°24'2 3.3
2017-Nov-05 12:29N 28°08' W 015°26'0 0.0
2017-Nov-05 11:59N 28°08' W 015°26'  
Track history (hours):
 
Tides and Currents Weather Stations Pressure Air Temp Water Temp Dewpoint Dewpoint Depression Visibility Wind Speed Wind Dir Waves Ship Positions

Shepherd Moon

Last reported at 2017-Nov-05 16:39 UTC. Time now 2017-Nov-21 00:58 UTC.
Position N 27°44' W 015°10'.
Warning: this ship's position is 15 days out of date.

Length 15 m.

Type: Sailing vessel. MMSI: 235013791.

Date/timePositionNaut miles runAvg speedWind from/ knotsBaromVisibWave heightAir tempDewpointWater temp
2017-Nov-05 16:39N 27°44' W 015°10'1 6.6
2017-Nov-05 16:30N 27°45' W 015°10'4 7.5
2017-Nov-05 15:59N 27°49' W 015°11'4 7.7
2017-Nov-05 15:30N 27°52' W 015°13'4 7.6
2017-Nov-05 15:00N 27°56' W 015°14'4 7.7
2017-Nov-05 14:29N 27°59' W 015°17'4 7.6
2017-Nov-05 13:59N 28°02' W 015°20'3 6.9
2017-Nov-05 13:29N 28°04' W 015°22'3 5.5
2017-Nov-05 12:58N 28°07' W 015°24'2 3.3
2017-Nov-05 12:29N 28°08' W 015°26'0 0.0
2017-Nov-05 11:59N 28°08' W 015°26'  

Dump ship's entire track history